Airfield :
LOGIN :

Register | Disclaimer

   EN    FR    IT 

 










Legend :    VFR   Marginal VFR   IFR   Intensive IFR   Very Intensive IFR
Visi :
Ceiling :
>= 8 km
>= 3000ft
5 to 8 km
1000 to 3000 ft
1500m to 5 km
500 to 1000 ft
800 to 1500m
200 to 500 ft
< 800m
< 200 ft
Symbols :   Thunderstorms  Fog  Heavy snow  Heavy precipitations  Wind > 20 kt
SIGMETs :     Misc.  Thunderstorms  Icing  Turbulence  Mountain Waves  Volcanic Ashes






- Airport Elevation : 1202 ft
- IATA code : IGS


ETSI - Ingolstadt

CURRENT METAR :
  • 290820Z 08004KT 3300 -DZ BR FEW003 BKN005 OVC010 04/03 Q1016 YLO GRN TEMPO YLO

EXPIRED METARs :
  • 290810Z 08004KT 3000 -DZ BR FEW003 BKN005 OVC011 04/03 Q1016 YLO
  • 290620Z VRB02KT 2500 -DZRA BR FEW003 BKN005 04/03 Q1015 YLO
  • 290720Z 07004KT 2000 -DZRA BR FEW003 BKN005 BKN010 04/03 Q1015 YLO
  • 290645Z 09002KT 1800 R24/4600N DZRA BR BKN003 BKN005 04/03 Q1015 YLO

TAF TAF ETSI
Valid from the 29 at 09:00 until the 29 at 18:00 UTC


290811Z 2909/2918 10003KT 4000 -RADZ SCT005 OVC007
TEMPO 2909/2913 08003KT 2000 DZRA BKN003 OVC005
BECMG 2912/2914 07003KT 5000 -RADZ OVC005
BECMG 2914/2916 05005KT 7000 -RADZ BKN007 OVC020



MET'MAP, your aeronautical weather chart ! - Copyright ORBIFLY December 2007 - Disclaimer

ORBIFLY MET'MAP TEAM :

Programming & Development : Alexandra Zaïnal
Original concept : Baudouin d'Aumeries
Technical & hardware support : Manuel Goepfert
Assistance : Marc-Olivier Méhu




SOURCES & CREDITS :

   NOAA